No particular awareness of the weather is required.    There are no Weather-warnings


Meteo18 Weather Cam more information Meteo18 Weather Cam


Thunder radar more information blitzortung!


Rain radar more information rain snow radar


Visit our other weather sites:

Template documentation
and downloads

And another site



Weather Underground History page Text

Daily Summary for May 10, 2017 Units:  English    Metric   Both
« Previous Day
Next Day »
Daily Weekly Monthly Yearly Custom
  High: Low: Average:
Temperature: 73 °F 39.9 °F 59.7 °F
Dew Point: 54.3 °F 36.9 °F 48.6 °F
Humidity: 92 % 42 % 69 %
Wind Speed: 7 mph 0 mph 1.4 mph
Wind Gust: 12 mph - -
Wind:- - SE
Pressure: 29.8 in 29.5 in -
Precipitation: 0 in    
Historical Graphs
 
 
Tabular Data for May 10, 2017
Time Temperature Dew Point Pressure Wind Wind Speed Wind Gust Humidity Rainfall Rate (Hourly)
00:02 40.5 °F 37.2 °F 29.8 in Calm   2 mph 88 % 0 in
00:12 39.9 °F 36.9 °F 29.8 in NW 1 mph 2 mph 89 % 0 in
00:17 39.9 °F 36.9 °F 29.8 in Calm   1 mph 89 % 0 in
00:22 40.3 °F 37.2 °F 29.8 in Calm   1 mph 89 % 0 in
00:32 40.3 °F 37.2 °F 29.8 in Calm   1 mph 89 % 0 in
00:42 40.6 °F 37.6 °F 29.8 in Calm   1 mph 89 % 0 in
00:52 41.2 °F 37.9 °F 29.8 in Calm   1 mph 88 % 0 in
01:02 41.7 °F 38.1 °F 29.8 in NNE 1 mph 1 mph 87 % 0 in
01:07 42.3 °F 38.7 °F 29.8 in Calm   2 mph 87 % 0 in
01:12 42.6 °F 38.5 °F 29.8 in Calm   2 mph 85 % 0 in
01:17 42.6 °F 38.5 °F 29.8 in Calm   1 mph 85 % 0 in
01:22 42.4 °F 38.3 °F 29.8 in Calm   1 mph 85 % 0 in
01:32 43.3 °F 39.4 °F 29.8 in Calm   2 mph 86 % 0 in
01:37 43.7 °F 39.2 °F 29.8 in NE 2 mph 2 mph 84 % 0 in
01:42 43.9 °F 39.4 °F 29.8 in NNE 3 mph 3 mph 84 % 0 in
01:47 43.9 °F 39.4 °F 29.8 in East 2 mph 5 mph 84 % 0 in
01:52 44.4 °F 39.9 °F 29.8 in NE 3 mph 5 mph 84 % 0 in
01:57 45 °F 40.1 °F 29.8 in NE 2 mph 6 mph 83 % 0 in
02:02 45.3 °F 40.1 °F 29.8 in East 1 mph 6 mph 82 % 0 in
02:07 45.9 °F 40.3 °F 29.8 in Calm   5 mph 81 % 0 in
02:12 46 °F 39.9 °F 29.8 in East 1 mph 5 mph 79 % 0 in
02:17 46.4 °F 40.6 °F 29.8 in ENE 3 mph 3 mph 80 % 0 in
02:22 46.8 °F 41.2 °F 29.8 in Calm   3 mph 81 % 0 in
02:27 46.9 °F 41.2 °F 29.8 in NNE 2 mph 3 mph 80 % 0 in
02:32 47.1 °F 41.4 °F 29.8 in NE 2 mph 3 mph 80 % 0 in
02:37 47.1 °F 41.5 °F 29.8 in ENE 2 mph 5 mph 81 % 0 in
02:42 47.7 °F 41.7 °F 29.8 in NE 3 mph 5 mph 80 % 0 in
02:52 48.2 °F 42.6 °F 29.7 in Calm   6 mph 81 % 0 in
02:57 48.7 °F 42.4 °F 29.7 in NE 2 mph 5 mph 79 % 0 in
03:02 49.5 °F 42.8 °F 29.7 in NE 2 mph 5 mph 78 % 0 in
03:12 50.4 °F 42.8 °F 29.7 in East 2 mph 4 mph 75 % 0 in
03:17 50.5 °F 43.3 °F 29.7 in NE 3 mph 5 mph 76 % 0 in
03:22 51.4 °F 43.7 °F 29.7 in East 2 mph 5 mph 75 % 0 in
03:27 52.2 °F 44.1 °F 29.7 in ENE 3 mph 5 mph 74 % 0 in
03:32 52.9 °F 43.7 °F 29.7 in ESE 5 mph 5 mph 71 % 0 in
03:42 52.7 °F 42.8 °F 29.7 in Calm   9 mph 69 % 0 in
03:47 53.1 °F 43.2 °F 29.7 in East 3 mph 9 mph 69 % 0 in
03:52 53.1 °F 43.5 °F 29.7 in East 3 mph 9 mph 70 % 0 in
03:57 53.4 °F 43.5 °F 29.7 in East 1 mph 8 mph 69 % 0 in
04:02 54 °F 44.1 °F 29.7 in East 3 mph 8 mph 69 % 0 in
04:12 54.9 °F 44.1 °F 29.7 in NE 3 mph 9 mph 67 % 0 in
04:17 55.6 °F 45.1 °F 29.7 in East 2 mph 9 mph 68 % 0 in
04:22 55.8 °F 45 °F 29.7 in SSE 2 mph 9 mph 67 % 0 in
04:32 55.9 °F 45.5 °F 29.7 in East 5 mph 7 mph 68 % 0 in
04:37 56.7 °F 46.6 °F 29.7 in ENE 2 mph 7 mph 69 % 0 in
04:42 57.6 °F 47.5 °F 29.7 in SE 2 mph 7 mph 69 % 0 in
04:47 58.3 °F 46.2 °F 29.7 in ESE 4 mph 9 mph 64 % 0 in
04:52 58.3 °F 45.7 °F 29.7 in ESE 1 mph 9 mph 63 % 0 in
04:57 58.5 °F 46.8 °F 29.7 in SE 3 mph 5 mph 65 % 0 in
05:02 58.6 °F 45.7 °F 29.7 in East 4 mph 5 mph 62 % 0 in
05:07 58.8 °F 46.6 °F 29.7 in ENE 4 mph 10 mph 64 % 0 in
05:12 59.2 °F 45.7 °F 29.7 in East 7 mph 10 mph 61 % 0 in
05:17 59.7 °F 46.2 °F 29.7 in East 4 mph 10 mph 61 % 0 in
05:22 60.4 °F 47.8 °F 29.7 in ENE 2 mph 10 mph 63 % 0 in
05:32 61.5 °F 47.1 °F 29.7 in SE 4 mph 9 mph 59 % 0 in
05:37 61.7 °F 46.8 °F 29.7 in East 5 mph 6 mph 58 % 0 in
05:42 61.5 °F 46.6 °F 29.7 in ESE 4 mph 7 mph 58 % 0 in
05:47 62.2 °F 47.3 °F 29.7 in SE 6 mph 8 mph 58 % 0 in
05:52 62.8 °F 47.3 °F 29.7 in East 3 mph 9 mph 57 % 0 in
05:57 62.8 °F 48.2 °F 29.7 in SE 1 mph 9 mph 59 % 0 in
06:02 63 °F 46.9 °F 29.7 in ESE 4 mph 9 mph 56 % 0 in
06:07 63.3 °F 48.7 °F 29.7 in ESE 1 mph 7 mph 59 % 0 in
06:12 63.3 °F 45.9 °F 29.7 in Calm   7 mph 53 % 0 in
06:17 63.3 °F 46.9 °F 29.7 in NE 2 mph 8 mph 55 % 0 in
06:22 63.9 °F 47.3 °F 29.7 in ESE 5 mph 8 mph 55 % 0 in
06:32 63.9 °F 48.4 °F 29.7 in East 5 mph 7 mph 57 % 0 in
06:42 64.4 °F 46.9 °F 29.7 in SE 1 mph 8 mph 53 % 0 in
06:47 64.9 °F 47.8 °F 29.7 in NE 1 mph 8 mph 54 % 0 in
06:52 65.1 °F 49.1 °F 29.7 in SE 4 mph 8 mph 56 % 0 in
06:57 65.3 °F 48.7 °F 29.7 in SSE 4 mph 7 mph 55 % 0 in
07:02 65.8 °F 50.2 °F 29.7 in East 2 mph 8 mph 57 % 0 in
07:07 65.7 °F 49.1 °F 29.7 in East 2 mph 8 mph 55 % 0 in
07:12 66.7 °F 50.5 °F 29.7 in ESE 1 mph 8 mph 56 % 0 in
07:17 66.6 °F 48.9 °F 29.7 in SE 1 mph 8 mph 53 % 0 in
07:22 66 °F 49.5 °F 29.7 in ESE 2 mph 10 mph 55 % 0 in
07:27 66.7 °F 48.6 °F 29.7 in SE 3 mph 10 mph 52 % 0 in
07:32 66.7 °F 48.6 °F 29.7 in ESE 3 mph 10 mph 52 % 0 in
07:37 66.9 °F 48.2 °F 29.7 in ENE 2 mph 8 mph 51 % 0 in
07:42 67.1 °F 48.9 °F 29.7 in ENE 4 mph 8 mph 52 % 0 in
07:47 67.6 °F 50.4 °F 29.7 in East 1 mph 7 mph 54 % 0 in
07:52 68.4 °F 49.5 °F 29.7 in Calm   7 mph 51 % 0 in
07:57 68 °F 48.7 °F 29.7 in SSE 5 mph 6 mph 50 % 0 in
08:02 67.8 °F 49.1 °F 29.7 in ENE 6 mph 6 mph 51 % 0 in
08:12 68.7 °F 47.7 °F 29.7 in SSE 2 mph 7 mph 47 % 0 in
08:17 69.3 °F 49.8 °F 29.7 in SE 4 mph 7 mph 50 % 0 in
08:22 69.3 °F 48.2 °F 29.7 in WSW 2 mph 8 mph 47 % 0 in
08:27 69.6 °F 51.3 °F 29.7 in Calm   8 mph 52 % 0 in
08:32 70.2 °F 47.3 °F 29.7 in Calm   8 mph 44 % 0 in
08:42 70.3 °F 49.6 °F 29.7 in SSE 7 mph 11 mph 48 % 0 in
08:47 70.2 °F 50.2 °F 29.7 in SSW 3 mph 11 mph 49 % 0 in
08:52 69.8 °F 49.3 °F 29.7 in South 5 mph 11 mph 48 % 0 in
08:57 69.6 °F 47.3 °F 29.7 in South 4 mph 11 mph 45 % 0 in
09:02 69.4 °F 48.4 °F 29.7 in SSE 4 mph 11 mph 47 % 0 in
09:07 69.3 °F 48.7 °F 29.7 in ESE 4 mph 11 mph 48 % 0 in
09:12 69.4 °F 48.4 °F 29.7 in SSE 2 mph 11 mph 47 % 0 in
09:17 70 °F 48.2 °F 29.7 in SE 2 mph 10 mph 46 % 0 in
09:22 70.3 °F 48 °F 29.7 in SE 2 mph 6 mph 45 % 0 in
09:32 70.2 °F 51.3 °F 29.7 in ENE 2 mph 7 mph 51 % 0 in
09:42 70.2 °F 49.6 °F 29.7 in South 2 mph 7 mph 48 % 0 in
09:47 69.6 °F 49.6 °F 29.7 in East 2 mph 6 mph 49 % 0 in
09:57 69.8 °F 52 °F 29.6 in ENE 2 mph 6 mph 53 % 0 in
10:02 70 °F 52 °F 29.6 in East 3 mph 6 mph 53 % 0 in
10:07 69.8 °F 50.4 °F 29.6 in East 1 mph 6 mph 50 % 0 in
10:12 69.8 °F 50.4 °F 29.6 in ENE 3 mph 6 mph 50 % 0 in
10:17 69.4 °F 49.5 °F 29.6 in East 1 mph 8 mph 49 % 0 in
10:22 69.6 °F 49.6 °F 29.6 in Calm   8 mph 49 % 0 in
10:32 70.2 °F 50.7 °F 29.6 in ENE 2 mph 6 mph 50 % 0 in
10:42 71.2 °F 52.7 °F 29.6 in SE 1 mph 4 mph 52 % 0 in
10:47 71.1 °F 51.4 °F 29.6 in ENE 4 mph 7 mph 50 % 0 in
10:52 70.5 °F 53.1 °F 29.6 in East 2 mph 7 mph 54 % 0 in
10:57 70.7 °F 52.2 °F 29.6 in East 1 mph 7 mph 52 % 0 in
11:02 71.2 °F 53.2 °F 29.6 in Calm   6 mph 53 % 0 in
11:07 71.6 °F 53.1 °F 29.6 in ESE 3 mph 5 mph 52 % 0 in
11:12 71.6 °F 53.1 °F 29.6 in SSE 1 mph 7 mph 52 % 0 in
11:17 71.6 °F 52.5 °F 29.6 in ESE 2 mph 7 mph 51 % 0 in
11:22 71.4 °F 52.3 °F 29.6 in ESE 4 mph 5 mph 51 % 0 in
11:27 71.1 °F 53.6 °F 29.6 in East 1 mph 5 mph 54 % 0 in
11:32 71.2 °F 53.2 °F 29.6 in Calm   5 mph 53 % 0 in
11:37 71.4 °F 51.8 °F 29.6 in Calm   5 mph 50 % 0 in
11:42 71.8 °F 51.6 °F 29.6 in SW 1 mph 5 mph 49 % 0 in
11:47 72 °F 51.3 °F 29.6 in SW 4 mph 5 mph 48 % 0 in
11:52 71.8 °F 49.3 °F 29.6 in SE 2 mph 6 mph 45 % 0 in
11:57 71.8 °F 48.7 °F 29.6 in South 2 mph 7 mph 44 % 0 in
12:02 72 °F 48.2 °F 29.6 in South 5 mph 7 mph 43 % 0 in
12:12 71.6 °F 47.8 °F 29.6 in SE 2 mph 6 mph 43 % 0 in
12:17 71.4 °F 48.9 °F 29.6 in Calm   7 mph 45 % 0 in
12:22 71.6 °F 47.8 °F 29.6 in WSW 1 mph 7 mph 43 % 0 in
12:27 72 °F 48.9 °F 29.6 in WSW 2 mph 3 mph 44 % 0 in
12:32 72 °F 48.2 °F 29.6 in West 1 mph 3 mph 43 % 0 in
12:37 72.5 °F 49.3 °F 29.6 in WSW 3 mph 4 mph 44 % 0 in
12:42 72.1 °F 49.1 °F 29.6 in SW 2 mph 4 mph 44 % 0 in
12:47 72.5 °F 49.3 °F 29.6 in Calm   4 mph 44 % 0 in
12:52 73 °F 49.3 °F 29.6 in WNW 2 mph 4 mph 43 % 0 in
12:57 72.5 °F 48 °F 29.6 in SW 2 mph 3 mph 42 % 0 in
13:02 72.1 °F 49.6 °F 29.6 in Calm   3 mph 45 % 0 in
13:07 72.1 °F 49.1 °F 29.6 in Calm   3 mph 44 % 0 in
13:12 71.8 °F 49.3 °F 29.6 in Calm   2 mph 45 % 0 in
13:17 71.1 °F 49.3 °F 29.6 in Calm     46 % 0 in
13:22 71.1 °F 48 °F 29.6 in Calm     44 % 0 in
13:27 70.9 °F 48.6 °F 29.6 in Calm     45 % 0 in
13:37 70.2 °F 49.6 °F 29.6 in Calm     48 % 0 in
13:42 70 °F 50.5 °F 29.6 in Calm     50 % 0 in
13:47 69.8 °F 49.3 °F 29.6 in Calm     48 % 0 in
13:52 70 °F 48.7 °F 29.6 in Calm     47 % 0 in
13:57 69.6 °F 49.6 °F 29.6 in Calm     49 % 0 in
14:02 69.3 °F 48.7 °F 29.6 in Calm     48 % 0 in
14:07 69.1 °F 49.1 °F 29.6 in Calm     49 % 0 in
14:12 68.9 °F 48.4 °F 29.6 in Calm     48 % 0 in
14:17 68.7 °F 49.3 °F 29.6 in Calm     50 % 0 in
14:22 68.9 °F 50.5 °F 29.6 in Calm     52 % 0 in
14:27 69.3 °F 50.9 °F 29.6 in Calm     52 % 0 in
14:32 69.3 °F 49.3 °F 29.6 in Calm     49 % 0 in
14:37 68.5 °F 51.8 °F 29.6 in Calm     55 % 0 in
14:47 66.7 °F 54.1 °F 29.6 in SSE 4 mph 4 mph 64 % 0 in
14:52 65.8 °F 53.8 °F 29.6 in East 3 mph 4 mph 65 % 0 in
14:57 65.1 °F 52.7 °F 29.6 in East 3 mph 7 mph 64 % 0 in
15:02 64.6 °F 52.9 °F 29.6 in ENE 6 mph 7 mph 66 % 0 in
15:07 63.9 °F 53.4 °F 29.6 in NE 2 mph 7 mph 69 % 0 in
15:12 63.1 °F 54 °F 29.6 in NE 3 mph 6 mph 72 % 0 in
15:17 62.4 °F 54.3 °F 29.6 in ENE 3 mph 6 mph 75 % 0 in
15:22 62.2 °F 54.1 °F 29.6 in ENE 1 mph 6 mph 75 % 0 in
15:27 62.1 °F 54.3 °F 29.6 in ENE 1 mph 6 mph 76 % 0 in
15:32 62.2 °F 53.8 °F 29.6 in SSW 2 mph 12 mph 74 % 0 in
15:37 63.9 °F 52.7 °F 29.6 in SW 7 mph 12 mph 67 % 0 in
15:42 63.9 °F 53.1 °F 29.6 in West 2 mph 12 mph 68 % 0 in
15:47 63.7 °F 53.8 °F 29.6 in West 3 mph 9 mph 70 % 0 in
15:52 63.3 °F 53.8 °F 29.6 in West 3 mph 7 mph 71 % 0 in
15:57 63.1 °F 54 °F 29.6 in West 2 mph 6 mph 72 % 0 in
16:02 63 °F 53.8 °F 29.6 in West 1 mph 4 mph 72 % 0 in
16:07 62.6 °F 53.8 °F 29.6 in West 2 mph 4 mph 73 % 0 in
16:12 62.4 °F 54 °F 29.6 in West 2 mph 5 mph 74 % 0 in
16:17 62.2 °F 53.8 °F 29.6 in WSW 2 mph 5 mph 74 % 0 in
16:22 62.1 °F 53.6 °F 29.6 in WSW 1 mph 5 mph 74 % 0 in
16:27 62.1 °F 53.6 °F 29.6 in WSW 2 mph 5 mph 74 % 0 in
16:32 61.9 °F 53.4 °F 29.6 in Calm   3 mph 74 % 0 in
16:37 61.9 °F 53.4 °F 29.6 in West 1 mph 3 mph 74 % 0 in
16:42 61.9 °F 53.4 °F 29.6 in Calm   2 mph 74 % 0 in
16:47 61.7 °F 53.2 °F 29.6 in Calm   1 mph 74 % 0 in
16:52 61.5 °F 53.2 °F 29.6 in Calm   1 mph 74 % 0 in
16:57 61.3 °F 53.4 °F 29.6 in Calm   1 mph 75 % 0 in
17:02 61.2 °F 53.6 °F 29.6 in Calm   1 mph 76 % 0 in
17:07 60.6 °F 53.8 °F 29.6 in Calm   2 mph 78 % 0 in
17:12 60.1 °F 54 °F 29.6 in Calm   2 mph 80 % 0 in
17:17 59.4 °F 53.6 °F 29.6 in Calm   2 mph 81 % 0 in
17:22 59 °F 53.8 °F 29.6 in Calm   2 mph 83 % 0 in
17:32 57.9 °F 53.1 °F 29.6 in Calm   2 mph 84 % 0 in
17:37 57.7 °F 53.2 °F 29.6 in Calm   2 mph 85 % 0 in
17:42 57.6 °F 53.1 °F 29.6 in Calm   2 mph 85 % 0 in
17:47 57.2 °F 53.1 °F 29.6 in Calm   1 mph 86 % 0 in
17:52 57 °F 53.2 °F 29.6 in Calm   1 mph 87 % 0 in
17:57 56.8 °F 53.1 °F 29.6 in Calm   1 mph 87 % 0 in
18:02 56.5 °F 52.9 °F 29.6 in Calm     88 % 0 in
18:07 56.1 °F 52.7 °F 29.6 in Calm     88 % 0 in
18:12 55.9 °F 52.5 °F 29.6 in Calm     88 % 0 in
18:17 56.1 °F 52.7 °F 29.6 in Calm   1 mph 88 % 0 in
18:22 56.1 °F 52.9 °F 29.6 in Calm   1 mph 89 % 0 in
18:27 56.1 °F 52.7 °F 29.6 in Calm   1 mph 88 % 0 in
18:32 55.8 °F 52.3 °F 29.6 in Calm   1 mph 88 % 0 in
18:37 55.8 °F 52.5 °F 29.6 in Calm   1 mph 89 % 0 in
18:42 55.8 °F 52.5 °F 29.6 in Calm   1 mph 89 % 0 in
18:47 55.6 °F 52.3 °F 29.6 in Calm   1 mph 89 % 0 in
18:52 55.6 °F 52.3 °F 29.6 in Calm     89 % 0 in
18:57 55.6 °F 52.7 °F 29.6 in Calm   1 mph 90 % 0 in
19:02 55.6 °F 52.3 °F 29.6 in Calm   1 mph 89 % 0 in
19:12 55.2 °F 52 °F 29.6 in Calm     89 % 0 in
19:17 55.4 °F 52.5 °F 29.6 in Calm     90 % 0 in
19:22 55.6 °F 52.3 °F 29.6 in Calm     89 % 0 in
19:27 55.2 °F 52 °F 29.6 in Calm     89 % 0 in
19:32 55.2 °F 52.3 °F 29.6 in Calm     90 % 0 in
19:42 55 °F 51.8 °F 29.6 in Calm     89 % 0 in
19:47 54.9 °F 51.6 °F 29.6 in Calm     89 % 0 in
19:52 54.5 °F 51.3 °F 29.6 in Calm     89 % 0 in
19:57 54.3 °F 51.1 °F 29.6 in Calm     89 % 0 in
20:02 54.1 °F 51.3 °F 29.6 in Calm     90 % 0 in
20:12 54.3 °F 51.4 °F 29.6 in Calm     90 % 0 in
20:17 54.3 °F 51.1 °F 29.6 in Calm     89 % 0 in
20:22 54.1 °F 50.9 °F 29.6 in Calm     89 % 0 in
20:27 53.8 °F 50.5 °F 29.6 in Calm     89 % 0 in
20:32 53.4 °F 50.5 °F 29.6 in Calm     90 % 0 in
20:37 53.4 °F 50.9 °F 29.6 in Calm     91 % 0 in
20:42 53.4 °F 50.9 °F 29.6 in Calm     91 % 0 in
20:47 53.6 °F 50.7 °F 29.6 in Calm     90 % 0 in
20:52 53.4 °F 50.2 °F 29.6 in Calm     89 % 0 in
20:57 53.2 °F 50 °F 29.6 in Calm     89 % 0 in
21:02 52.9 °F 50 °F 29.6 in Calm     90 % 0 in
21:12 52.9 °F 50.4 °F 29.6 in Calm     91 % 0 in
21:17 52.9 °F 50 °F 29.6 in Calm     90 % 0 in
21:22 52.7 °F 49.5 °F 29.6 in Calm     89 % 0 in
21:27 52.3 °F 49.5 °F 29.6 in Calm     90 % 0 in
21:32 52.2 °F 49.3 °F 29.6 in Calm     90 % 0 in
21:37 52.2 °F 49.3 °F 29.6 in Calm     90 % 0 in
21:42 52.2 °F 49.3 °F 29.6 in Calm     90 % 0 in
21:47 51.8 °F 48.7 °F 29.6 in Calm     89 % 0 in
21:52 51.6 °F 48.7 °F 29.5 in Calm     90 % 0 in
21:57 51.6 °F 48.7 °F 29.5 in Calm     90 % 0 in
22:02 51.3 °F 48.2 °F 29.6 in Calm     89 % 0 in
22:12 50.7 °F 48.2 °F 29.5 in Calm     91 % 0 in
22:17 51.3 °F 48.7 °F 29.5 in Calm     91 % 0 in
22:22 51.3 °F 48.7 °F 29.5 in Calm     91 % 0 in
22:27 51.1 °F 48 °F 29.5 in Calm     89 % 0 in
22:32 50.5 °F 47.5 °F 29.5 in Calm     89 % 0 in
22:42 50.4 °F 48.2 °F 29.5 in NNE 2 mph 2 mph 92 % 0 in
22:47 50.9 °F 48.4 °F 29.5 in NE 2 mph 2 mph 91 % 0 in
22:52 51.1 °F 48.2 °F 29.5 in NNE 2 mph 2 mph 90 % 0 in
22:57 50.7 °F 47.7 °F 29.5 in Calm   3 mph 89 % 0 in
23:02 50.5 °F 47.5 °F 29.5 in Calm   3 mph 89 % 0 in
23:12 50.4 °F 47.5 °F 29.5 in Calm   2 mph 90 % 0 in
23:17 50 °F 47.1 °F 29.5 in Calm   1 mph 90 % 0 in
23:22 49.8 °F 46.9 °F 29.5 in Calm   1 mph 90 % 0 in
23:32 49.6 °F 47.1 °F 29.5 in Calm   1 mph 91 % 0 in
23:37 49.5 °F 46.6 °F 29.5 in Calm   1 mph 90 % 0 in
23:42 49.1 °F 46.2 °F 29.5 in Calm   1 mph 90 % 0 in
23:47 48.9 °F 46.4 °F 29.5 in Calm     91 % 0 in
23:52 48.7 °F 46.2 °F 29.5 in Calm     91 % 0 in
23:57 48.6 °F 46 °F 29.5 in Calm     91 % 0 in
Meteo18
Compliments of Weather Underground - 4 mb

Script developed by  Jim McMurry - jmcmurry@mwt.net Adapted for the template by  Wim van der Kuil - Leuven-Template.eu

You find our weather info also at:

European Weather Network

Weather Underground

Equipment we use:

Weather-station
Davis Vue

Weather-program
Meteohub

Weather-server
Raspberry PI 2 B+

Provider
1 and 1

Davis Vue

Meteohub

Raspberry PI 2 B+

1 and 1